sensor_id;sensor_type;location;lat;lon;timestamp;P1;durP1;ratioP1;P2;durP2;ratioP2
36651;SDS011;53334;51.976;20.144;2023-03-11T13:05:51;31.50;;;22.27;;
36651;SDS011;53334;51.976;20.144;2023-03-11T13:08:31;31.50;;;20.20;;
36651;SDS011;53334;51.976;20.144;2023-03-11T13:17:23;29.23;;;17.85;;
36651;SDS011;53334;51.976;20.144;2023-03-11T13:19:58;33.85;;;17.67;;
36651;SDS011;53334;51.976;20.144;2023-03-11T13:25:55;23.90;;;16.27;;
36651;SDS011;53334;51.976;20.144;2023-03-11T13:28:48;24.88;;;15.88;;
36651;SDS011;53334;51.976;20.144;2023-03-11T13:31:41;29.25;;;16.83;;
36651;SDS011;53334;51.976;20.144;2023-03-11T13:34:22;29.65;;;15.82;;
36651;SDS011;53334;51.976;20.144;2023-03-11T13:37:09;36.53;;;14.20;;
36651;SDS011;53334;51.976;20.144;2023-03-11T13:40:00;23.23;;;13.40;;
36651;SDS011;53334;51.976;20.144;2023-03-11T13:42:46;29.83;;;15.15;;
36651;SDS011;53334;51.976;20.144;2023-03-11T13:45:25;24.90;;;12.80;;
36651;SDS011;53334;51.976;20.144;2023-03-11T13:48:02;27.52;;;12.57;;
36651;SDS011;53334;51.976;20.144;2023-03-11T13:50:39;24.63;;;11.63;;
36651;SDS011;53334;51.976;20.144;2023-03-11T13:53:20;23.95;;;11.77;;
36651;SDS011;53334;51.976;20.144;2023-03-11T13:55:57;15.60;;;10.25;;
36651;SDS011;53334;51.976;20.144;2023-03-11T13:58:32;19.15;;;9.93;;
36651;SDS011;53334;51.976;20.144;2023-03-11T14:01:05;12.02;;;9.60;;
36651;SDS011;53334;51.976;20.144;2023-03-11T14:03:48;18.73;;;9.05;;
36651;SDS011;53334;51.976;20.144;2023-03-11T14:06:22;17.02;;;9.43;;
36651;SDS011;53334;51.976;20.144;2023-03-11T14:08:56;18.30;;;9.88;;
36651;SDS011;53334;51.976;20.144;2023-03-11T14:11:30;11.27;;;8.43;;
36651;SDS011;53334;51.976;20.144;2023-03-11T14:14:16;14.75;;;9.18;;
36651;SDS011;53334;51.976;20.144;2023-03-11T14:17:05;20.08;;;9.20;;
36651;SDS011;53334;51.976;20.144;2023-03-11T14:22:43;12.45;;;7.55;;
36651;SDS011;53334;51.976;20.144;2023-03-11T14:25:18;18.30;;;8.63;;
36651;SDS011;53334;51.976;20.144;2023-03-11T14:27:54;16.90;;;8.07;;
36651;SDS011;53334;51.976;20.144;2023-03-11T14:30:31;14.23;;;7.22;;
36651;SDS011;53334;51.976;20.144;2023-03-11T14:33:17;15.52;;;7.53;;
36651;SDS011;53334;51.976;20.144;2023-03-11T14:35:53;12.65;;;7.05;;
36651;SDS011;53334;51.976;20.144;2023-03-11T14:38:29;14.18;;;7.82;;
36651;SDS011;53334;51.976;20.144;2023-03-11T14:41:04;12.15;;;6.75;;
36651;SDS011;53334;51.976;20.144;2023-03-11T14:43:39;9.32;;;6.43;;
36651;SDS011;53334;51.976;20.144;2023-03-11T14:46:18;13.02;;;6.15;;
36651;SDS011;53334;51.976;20.144;2023-03-11T14:48:55;11.80;;;5.90;;
36651;SDS011;53334;51.976;20.144;2023-03-11T14:51:30;10.32;;;5.47;;
36651;SDS011;53334;51.976;20.144;2023-03-11T14:54:06;10.60;;;5.47;;
36651;SDS011;53334;51.976;20.144;2023-03-11T14:56:49;11.05;;;5.47;;
36651;SDS011;53334;51.976;20.144;2023-03-11T14:59:27;8.30;;;5.22;;
36651;SDS011;53334;51.976;20.144;2023-03-11T15:02:09;7.03;;;4.50;;
36651;SDS011;53334;51.976;20.144;2023-03-11T15:07:34;8.48;;;5.25;;
36651;SDS011;53334;51.976;20.144;2023-03-11T15:12:42;10.02;;;5.40;;
36651;SDS011;53334;51.976;20.144;2023-03-11T15:15:20;11.77;;;4.72;;
36651;SDS011;53334;51.976;20.144;2023-03-11T15:17:57;11.93;;;5.18;;
36651;SDS011;53334;51.976;20.144;2023-03-11T15:20:32;276.92;;;114.25;;
36651;SDS011;53334;51.976;20.144;2023-03-11T15:23:15;625.65;;;301.27;;
36651;SDS011;53334;51.976;20.144;2023-03-11T15:25:52;704.75;;;351.35;;
36651;SDS011;53334;51.976;20.144;2023-03-11T15:28:27;742.78;;;358.98;;
36651;SDS011;53334;51.976;20.144;2023-03-11T15:31:25;457.63;;;188.38;;
36651;SDS011;53334;51.976;20.144;2023-03-11T15:34:19;396.30;;;161.35;;
36651;SDS011;53334;51.976;20.144;2023-03-11T15:36:57;335.25;;;132.93;;
36651;SDS011;53334;51.976;20.144;2023-03-11T15:39:41;290.55;;;117.28;;
36651;SDS011;53334;51.976;20.144;2023-03-11T15:42:18;267.58;;;108.28;;
36651;SDS011;53334;51.976;20.144;2023-03-11T15:45:08;245.90;;;99.95;;
36651;SDS011;53334;51.976;20.144;2023-03-11T15:47:45;218.60;;;84.75;;
36651;SDS011;53334;51.976;20.144;2023-03-11T15:50:23;181.00;;;75.35;;
36651;SDS011;53334;51.976;20.144;2023-03-11T15:53:13;151.25;;;64.97;;
36651;SDS011;53334;51.976;20.144;2023-03-11T15:55:47;172.98;;;69.22;;
36651;SDS011;53334;51.976;20.144;2023-03-11T15:58:20;159.77;;;63.30;;
36651;SDS011;53334;51.976;20.144;2023-03-11T16:00:54;138.95;;;58.25;;
36651;SDS011;53334;51.976;20.144;2023-03-11T16:03:29;120.05;;;53.53;;
36651;SDS011;53334;51.976;20.144;2023-03-11T16:06:03;125.47;;;51.25;;
36651;SDS011;53334;51.976;20.144;2023-03-11T16:08:37;114.80;;;49.22;;
36651;SDS011;53334;51.976;20.144;2023-03-11T16:11:11;98.25;;;43.83;;
36651;SDS011;53334;51.976;20.144;2023-03-11T16:13:44;103.53;;;43.10;;
36651;SDS011;53334;51.976;20.144;2023-03-11T16:16:18;100.82;;;42.03;;
36651;SDS011;53334;51.976;20.144;2023-03-11T16:18:51;98.07;;;41.13;;
36651;SDS011;53334;51.976;20.144;2023-03-11T16:21:29;81.65;;;35.38;;
36651;SDS011;53334;51.976;20.144;2023-03-11T16:24:06;76.88;;;34.05;;
36651;SDS011;53334;51.976;20.144;2023-03-11T16:26:43;77.00;;;32.10;;
36651;SDS011;53334;51.976;20.144;2023-03-11T16:29:17;69.30;;;30.13;;
36651;SDS011;53334;51.976;20.144;2023-03-11T16:31:53;73.53;;;31.00;;
36651;SDS011;53334;51.976;20.144;2023-03-11T16:34:27;64.55;;;27.55;;
36651;SDS011;53334;51.976;20.144;2023-03-11T16:37:02;62.95;;;29.63;;
36651;SDS011;53334;51.976;20.144;2023-03-11T16:39:35;64.47;;;29.25;;
36651;SDS011;53334;51.976;20.144;2023-03-11T16:42:09;55.53;;;26.95;;
36651;SDS011;53334;51.976;20.144;2023-03-11T16:44:43;52.05;;;25.25;;
36651;SDS011;53334;51.976;20.144;2023-03-11T16:47:16;52.20;;;24.67;;
36651;SDS011;53334;51.976;20.144;2023-03-11T16:49:50;53.78;;;22.85;;
36651;SDS011;53334;51.976;20.144;2023-03-11T16:52:25;43.17;;;22.30;;
36651;SDS011;53334;51.976;20.144;2023-03-11T16:54:59;47.55;;;21.35;;
36651;SDS011;53334;51.976;20.144;2023-03-11T16:57:32;48.33;;;22.52;;
36651;SDS011;53334;51.976;20.144;2023-03-11T17:00:06;42.85;;;19.60;;
36651;SDS011;53334;51.976;20.144;2023-03-11T17:02:41;38.67;;;18.60;;
36651;SDS011;53334;51.976;20.144;2023-03-11T17:05:15;40.42;;;20.00;;
36651;SDS011;53334;51.976;20.144;2023-03-11T17:07:52;46.90;;;18.55;;
36651;SDS011;53334;51.976;20.144;2023-03-11T17:10:34;34.38;;;17.67;;
36651;SDS011;53334;51.976;20.144;2023-03-11T17:13:09;39.85;;;18.58;;
36651;SDS011;53334;51.976;20.144;2023-03-11T17:15:44;33.25;;;16.35;;
36651;SDS011;53334;51.976;20.144;2023-03-11T17:18:17;39.90;;;14.95;;
36651;SDS011;53334;51.976;20.144;2023-03-11T17:20:50;28.70;;;15.70;;
36651;SDS011;53334;51.976;20.144;2023-03-11T17:23:25;30.00;;;15.00;;
36651;SDS011;53334;51.976;20.144;2023-03-11T17:25:59;33.90;;;14.95;;
36651;SDS011;53334;51.976;20.144;2023-03-11T17:28:32;34.47;;;15.80;;
36651;SDS011;53334;51.976;20.144;2023-03-11T17:31:09;27.67;;;13.43;;
36651;SDS011;53334;51.976;20.144;2023-03-11T17:33:44;29.65;;;14.23;;
36651;SDS011;53334;51.976;20.144;2023-03-11T17:36:17;34.90;;;14.65;;
36651;SDS011;53334;51.976;20.144;2023-03-11T17:38:52;26.67;;;13.68;;
36651;SDS011;53334;51.976;20.144;2023-03-11T17:41:26;22.33;;;12.63;;
36651;SDS011;53334;51.976;20.144;2023-03-11T17:44:00;22.58;;;11.88;;
36651;SDS011;53334;51.976;20.144;2023-03-11T17:46:33;29.50;;;12.02;;
36651;SDS011;53334;51.976;20.144;2023-03-11T17:49:11;22.48;;;11.55;;
36651;SDS011;53334;51.976;20.144;2023-03-11T17:51:45;22.13;;;10.85;;
36651;SDS011;53334;51.976;20.144;2023-03-11T17:54:21;27.55;;;12.57;;
36651;SDS011;53334;51.976;20.144;2023-03-11T17:56:54;33.15;;;13.02;;
36651;SDS011;53334;51.976;20.144;2023-03-11T17:59:28;30.75;;;16.23;;
36651;SDS011;53334;51.976;20.144;2023-03-11T18:02:01;28.58;;;14.82;;
36651;SDS011;53334;51.976;20.144;2023-03-11T18:04:35;40.83;;;13.45;;
36651;SDS011;53334;51.976;20.144;2023-03-11T18:07:09;37.25;;;15.60;;
36651;SDS011;53334;51.976;20.144;2023-03-11T18:09:44;36.10;;;16.88;;
36651;SDS011;53334;51.976;20.144;2023-03-11T18:12:18;38.08;;;17.75;;
36651;SDS011;53334;51.976;20.144;2023-03-11T18:14:52;37.92;;;17.23;;
36651;SDS011;53334;51.976;20.144;2023-03-11T18:17:25;35.05;;;17.00;;
36651;SDS011;53334;51.976;20.144;2023-03-11T18:20:00;47.72;;;15.50;;
36651;SDS011;53334;51.976;20.144;2023-03-11T18:22:33;32.80;;;14.25;;
36651;SDS011;53334;51.976;20.144;2023-03-11T18:25:09;28.70;;;13.82;;
36651;SDS011;53334;51.976;20.144;2023-03-11T18:27:44;27.67;;;12.82;;
36651;SDS011;53334;51.976;20.144;2023-03-11T18:30:17;25.48;;;12.52;;
36651;SDS011;53334;51.976;20.144;2023-03-11T18:35:24;19.67;;;11.02;;
36651;SDS011;53334;51.976;20.144;2023-03-11T18:37:58;31.50;;;12.32;;
36651;SDS011;53334;51.976;20.144;2023-03-11T18:40:33;20.65;;;10.48;;
36651;SDS011;53334;51.976;20.144;2023-03-11T18:43:06;21.30;;;10.15;;
36651;SDS011;53334;51.976;20.144;2023-03-11T18:45:42;20.00;;;9.73;;
36651;SDS011;53334;51.976;20.144;2023-03-11T18:48:16;16.35;;;9.35;;
36651;SDS011;53334;51.976;20.144;2023-03-11T18:50:49;17.75;;;9.40;;
36651;SDS011;53334;51.976;20.144;2023-03-11T18:53:23;22.33;;;9.95;;
36651;SDS011;53334;51.976;20.144;2023-03-11T18:55:59;18.00;;;9.25;;
36651;SDS011;53334;51.976;20.144;2023-03-11T18:58:37;17.00;;;9.02;;
36651;SDS011;53334;51.976;20.144;2023-03-11T19:01:11;18.58;;;9.43;;
36651;SDS011;53334;51.976;20.144;2023-03-11T19:03:47;18.00;;;8.13;;
36651;SDS011;53334;51.976;20.144;2023-03-11T19:06:22;18.50;;;8.35;;
36651;SDS011;53334;51.976;20.144;2023-03-11T19:08:56;15.85;;;7.82;;
36651;SDS011;53334;51.976;20.144;2023-03-11T19:11:31;24.95;;;7.35;;
36651;SDS011;53334;51.976;20.144;2023-03-11T19:14:04;17.92;;;7.95;;
36651;SDS011;53334;51.976;20.144;2023-03-11T19:16:38;17.35;;;7.82;;
36651;SDS011;53334;51.976;20.144;2023-03-11T19:19:11;15.52;;;6.93;;
36651;SDS011;53334;51.976;20.144;2023-03-11T19:21:45;14.40;;;6.40;;
36651;SDS011;53334;51.976;20.144;2023-03-11T19:24:18;12.23;;;6.65;;
36651;SDS011;53334;51.976;20.144;2023-03-11T19:26:53;17.70;;;6.60;;
36651;SDS011;53334;51.976;20.144;2023-03-11T19:29:26;13.13;;;6.43;;
36651;SDS011;53334;51.976;20.144;2023-03-11T19:32:00;12.82;;;5.93;;
36651;SDS011;53334;51.976;20.144;2023-03-11T19:34:34;12.95;;;5.70;;
36651;SDS011;53334;51.976;20.144;2023-03-11T19:37:07;20.60;;;6.13;;
36651;SDS011;53334;51.976;20.144;2023-03-11T19:39:41;17.00;;;5.93;;
36651;SDS011;53334;51.976;20.144;2023-03-11T19:42:15;17.48;;;6.10;;
36651;SDS011;53334;51.976;20.144;2023-03-11T19:44:50;14.40;;;5.57;;
36651;SDS011;53334;51.976;20.144;2023-03-11T19:47:24;11.80;;;5.82;;
36651;SDS011;53334;51.976;20.144;2023-03-11T19:52:31;15.40;;;5.63;;
36651;SDS011;53334;51.976;20.144;2023-03-11T19:55:06;19.58;;;5.82;;
36651;SDS011;53334;51.976;20.144;2023-03-11T19:57:41;15.75;;;5.97;;
36651;SDS011;53334;51.976;20.144;2023-03-11T20:00:15;15.90;;;5.75;;
36651;SDS011;53334;51.976;20.144;2023-03-11T20:02:52;19.63;;;5.85;;
36651;SDS011;53334;51.976;20.144;2023-03-11T20:05:27;15.35;;;5.80;;
36651;SDS011;53334;51.976;20.144;2023-03-11T20:08:00;12.82;;;4.70;;
36651;SDS011;53334;51.976;20.144;2023-03-11T20:13:11;11.95;;;4.63;;
36651;SDS011;53334;51.976;20.144;2023-03-11T20:15:45;14.68;;;4.65;;
36651;SDS011;53334;51.976;20.144;2023-03-11T20:18:18;12.30;;;4.75;;
36651;SDS011;53334;51.976;20.144;2023-03-11T20:20:52;14.25;;;4.38;;
36651;SDS011;53334;51.976;20.144;2023-03-11T20:23:25;13.80;;;4.50;;
36651;SDS011;53334;51.976;20.144;2023-03-11T20:25:58;7.68;;;3.88;;
36651;SDS011;53334;51.976;20.144;2023-03-11T20:28:37;11.43;;;4.47;;
36651;SDS011;53334;51.976;20.144;2023-03-11T20:31:11;8.05;;;4.32;;
36651;SDS011;53334;51.976;20.144;2023-03-11T20:33:47;9.82;;;3.67;;
36651;SDS011;53334;51.976;20.144;2023-03-11T20:36:22;10.25;;;3.47;;
36651;SDS011;53334;51.976;20.144;2023-03-11T20:38:57;12.63;;;4.15;;
36651;SDS011;53334;51.976;20.144;2023-03-11T20:41:32;8.90;;;3.92;;
36651;SDS011;53334;51.976;20.144;2023-03-11T20:44:10;10.15;;;4.20;;
36651;SDS011;53334;51.976;20.144;2023-03-11T20:46:44;14.05;;;4.07;;
36651;SDS011;53334;51.976;20.144;2023-03-11T20:49:20;7.85;;;4.20;;
36651;SDS011;53334;51.976;20.144;2023-03-11T20:51:53;7.57;;;3.72;;
36651;SDS011;53334;51.976;20.144;2023-03-11T20:54:26;7.63;;;3.22;;
36651;SDS011;53334;51.976;20.144;2023-03-11T20:57:00;10.95;;;3.80;;
36651;SDS011;53334;51.976;20.144;2023-03-11T20:59:35;8.27;;;2.97;;
36651;SDS011;53334;51.976;20.144;2023-03-11T21:02:09;8.65;;;3.88;;
36651;SDS011;53334;51.976;20.144;2023-03-11T21:04:43;11.05;;;3.80;;
36651;SDS011;53334;51.976;20.144;2023-03-11T21:07:18;7.53;;;3.50;;
36651;SDS011;53334;51.976;20.144;2023-03-11T21:09:51;5.22;;;3.30;;
36651;SDS011;53334;51.976;20.144;2023-03-11T21:12:25;10.07;;;3.50;;
36651;SDS011;53334;51.976;20.144;2023-03-11T21:15:03;5.65;;;3.53;;
36651;SDS011;53334;51.976;20.144;2023-03-11T21:17:39;6.07;;;3.50;;
36651;SDS011;53334;51.976;20.144;2023-03-11T21:20:12;10.30;;;4.50;;
36651;SDS011;53334;51.976;20.144;2023-03-11T21:22:47;6.45;;;3.15;;
36651;SDS011;53334;51.976;20.144;2023-03-11T21:25:20;8.35;;;3.50;;
36651;SDS011;53334;51.976;20.144;2023-03-11T21:27:54;10.98;;;3.83;;
36651;SDS011;53334;51.976;20.144;2023-03-11T21:30:28;12.63;;;3.63;;
36651;SDS011;53334;51.976;20.144;2023-03-11T21:33:02;6.85;;;3.92;;
36651;SDS011;53334;51.976;20.144;2023-03-11T21:35:36;4.45;;;2.78;;
36651;SDS011;53334;51.976;20.144;2023-03-11T21:38:09;4.60;;;2.90;;
36651;SDS011;53334;51.976;20.144;2023-03-11T21:40:43;6.43;;;3.42;;
36651;SDS011;53334;51.976;20.144;2023-03-11T21:43:16;6.15;;;3.13;;
36651;SDS011;53334;51.976;20.144;2023-03-11T21:45:52;6.57;;;3.17;;
36651;SDS011;53334;51.976;20.144;2023-03-11T21:48:25;5.70;;;3.72;;
36651;SDS011;53334;51.976;20.144;2023-03-11T21:50:59;6.25;;;3.03;;
36651;SDS011;53334;51.976;20.144;2023-03-11T21:53:33;5.03;;;2.78;;
36651;SDS011;53334;51.976;20.144;2023-03-11T21:56:07;8.73;;;2.95;;
36651;SDS011;53334;51.976;20.144;2023-03-11T21:58:41;5.03;;;2.60;;
36651;SDS011;53334;51.976;20.144;2023-03-11T22:06:23;4.00;;;2.65;;
36651;SDS011;53334;51.976;20.144;2023-03-11T22:08:56;7.13;;;3.08;;
36651;SDS011;53334;51.976;20.144;2023-03-11T22:11:29;5.95;;;2.63;;
36651;SDS011;53334;51.976;20.144;2023-03-11T22:14:03;3.22;;;2.22;;
36651;SDS011;53334;51.976;20.144;2023-03-11T22:16:38;3.25;;;2.40;;
36651;SDS011;53334;51.976;20.144;2023-03-11T22:19:11;6.95;;;2.45;;
36651;SDS011;53334;51.976;20.144;2023-03-11T22:21:45;3.67;;;2.30;;
36651;SDS011;53334;51.976;20.144;2023-03-11T22:24:19;5.32;;;2.63;;
36651;SDS011;53334;51.976;20.144;2023-03-11T22:26:52;4.68;;;2.20;;
36651;SDS011;53334;51.976;20.144;2023-03-11T22:29:26;3.83;;;2.45;;
36651;SDS011;53334;51.976;20.144;2023-03-11T22:32:00;4.25;;;2.47;;
36651;SDS011;53334;51.976;20.144;2023-03-11T22:34:34;3.28;;;2.42;;
36651;SDS011;53334;51.976;20.144;2023-03-11T22:37:07;4.38;;;2.13;;
36651;SDS011;53334;51.976;20.144;2023-03-11T22:39:41;2.55;;;2.00;;
36651;SDS011;53334;51.976;20.144;2023-03-11T22:42:14;3.28;;;2.40;;
36651;SDS011;53334;51.976;20.144;2023-03-11T22:44:47;5.00;;;2.53;;
36651;SDS011;53334;51.976;20.144;2023-03-11T22:47:22;3.00;;;2.03;;
36651;SDS011;53334;51.976;20.144;2023-03-11T22:49:55;3.70;;;2.20;;
36651;SDS011;53334;51.976;20.144;2023-03-11T22:52:29;4.85;;;2.40;;
36651;SDS011;53334;51.976;20.144;2023-03-11T22:55:02;5.18;;;2.30;;
36651;SDS011;53334;51.976;20.144;2023-03-11T22:57:36;2.28;;;2.03;;
36651;SDS011;53334;51.976;20.144;2023-03-11T23:00:11;4.50;;;2.15;;
36651;SDS011;53334;51.976;20.144;2023-03-11T23:02:51;2.20;;;2.00;;
36651;SDS011;53334;51.976;20.144;2023-03-11T23:05:25;4.28;;;2.03;;
36651;SDS011;53334;51.976;20.144;2023-03-11T23:07:59;2.15;;;1.95;;
36651;SDS011;53334;51.976;20.144;2023-03-11T23:10:32;2.65;;;2.28;;
36651;SDS011;53334;51.976;20.144;2023-03-11T23:13:05;4.43;;;2.58;;
36651;SDS011;53334;51.976;20.144;2023-03-11T23:15:39;4.85;;;2.15;;
36651;SDS011;53334;51.976;20.144;2023-03-11T23:18:14;5.30;;;2.20;;
36651;SDS011;53334;51.976;20.144;2023-03-11T23:20:48;3.47;;;2.58;;
36651;SDS011;53334;51.976;20.144;2023-03-11T23:23:21;2.88;;;2.08;;
36651;SDS011;53334;51.976;20.144;2023-03-11T23:25:55;2.38;;;2.15;;
36651;SDS011;53334;51.976;20.144;2023-03-11T23:28:28;3.35;;;2.30;;
36651;SDS011;53334;51.976;20.144;2023-03-11T23:31:02;2.70;;;2.50;;
36651;SDS011;53334;51.976;20.144;2023-03-11T23:36:11;3.65;;;2.30;;
36651;SDS011;53334;51.976;20.144;2023-03-11T23:38:46;2.55;;;1.95;;
36651;SDS011;53334;51.976;20.144;2023-03-11T23:41:21;3.97;;;2.55;;
36651;SDS011;53334;51.976;20.144;2023-03-11T23:46:28;4.82;;;2.00;;
36651;SDS011;53334;51.976;20.144;2023-03-11T23:49:02;6.63;;;3.00;;
36651;SDS011;53334;51.976;20.144;2023-03-11T23:51:36;4.07;;;2.42;;
36651;SDS011;53334;51.976;20.144;2023-03-11T23:54:09;3.22;;;2.33;;
36651;SDS011;53334;51.976;20.144;2023-03-11T23:56:43;2.33;;;1.75;;
36651;SDS011;53334;51.976;20.144;2023-03-11T23:59:16;3.25;;;2.30;;
